createdAt,value
2022-11-25T00:02:44.905Z,100473.94
2022-11-25T00:05:47.668Z,100475.66
2022-11-25T00:08:51.824Z,100481.63
2022-11-25T00:11:54.388Z,100489.34
2022-11-25T00:14:56.590Z,100494.50
2022-11-25T00:17:59.258Z,100495.34
2022-11-25T00:21:11.922Z,100499.59
2022-11-25T00:24:16.059Z,100491.06
2022-11-25T00:27:18.355Z,100491.88
2022-11-25T00:30:20.953Z,100483.34
2022-11-25T00:33:23.372Z,100503.06
2022-11-25T00:36:27.482Z,100503.94
2022-11-25T00:39:29.834Z,100508.22
2022-11-25T00:42:50.876Z,100515.06
2022-11-25T00:45:54.748Z,100520.22
2022-11-25T00:48:57.586Z,100521.09
2022-11-25T00:52:00.348Z,100522.81
2022-11-25T00:55:03.810Z,100509.06
2022-11-25T00:58:06.199Z,100514.19
2022-11-25T01:01:09.480Z,100519.34
2022-11-25T01:04:11.949Z,100525.34
2022-11-25T01:07:14.826Z,100525.34
2022-11-25T01:10:23.261Z,100529.63
2022-11-25T01:13:25.834Z,100526.19
2022-11-25T01:16:28.723Z,100522.75
2022-11-25T01:19:31.288Z,100525.34
2022-11-25T01:22:35.002Z,100522.78
2022-11-25T01:25:41.597Z,100532.22
2022-11-25T01:28:44.245Z,100530.53
2022-11-25T01:31:48.622Z,100534.78
2022-11-25T01:34:51.271Z,100539.94
2022-11-25T01:37:53.701Z,100546.78
2022-11-25T01:40:55.973Z,100543.34
2022-11-25T01:44:09.516Z,100547.62
2022-11-25T01:47:14.502Z,100543.34
2022-11-25T01:50:19.342Z,100541.63
2022-11-25T01:53:22.176Z,100551.06
2022-11-25T01:56:26.410Z,100551.09
2022-11-25T01:59:29.962Z,100551.06
2022-11-25T02:02:32.657Z,100545.94
2022-11-25T02:06:04.491Z,100543.38
2022-11-25T02:09:07.687Z,100535.66
2022-11-25T02:12:10.530Z,100541.63
2022-11-25T02:15:13.848Z,100544.22
2022-11-25T02:18:16.201Z,100545.91
2022-11-25T02:21:25.575Z,100552.78
2022-11-25T02:24:34.649Z,100543.34
2022-11-25T02:27:37.426Z,100549.34
2022-11-25T02:30:41.106Z,100551.06
2022-11-25T02:33:43.661Z,100533.94
2022-11-25T02:36:45.925Z,100551.06
2022-11-25T02:39:49.362Z,100546.75
2022-11-25T02:42:52.527Z,100541.63
2022-11-25T02:46:06.302Z,100545.91
2022-11-25T02:49:09.882Z,100554.47
2022-11-25T02:52:13.745Z,100557.03
2022-11-25T02:55:17.323Z,100552.78
2022-11-25T02:58:21.422Z,100551.03
2022-11-25T03:01:23.973Z,100533.09
2022-11-25T03:04:26.500Z,100538.19
2022-11-25T03:07:28.935Z,100556.19
2022-11-25T03:10:33.794Z,100563.91
2022-11-25T03:13:36.442Z,100560.50
2022-11-25T03:16:39.039Z,100569.03
2022-11-25T03:19:41.473Z,100577.59
2022-11-25T03:22:44.360Z,100581.88
2022-11-25T03:25:46.497Z,100592.19
2022-11-25T03:28:49.572Z,100599.03
2022-11-25T03:31:51.906Z,100604.16
2022-11-25T03:34:56.114Z,100614.44
2022-11-25T03:37:58.498Z,100613.59
2022-11-25T03:41:01.393Z,100601.59
2022-11-25T03:44:03.774Z,100605.88
2022-11-25T03:47:07.596Z,100612.72
2022-11-25T03:50:11.359Z,100616.97
2022-11-25T03:53:14.350Z,100616.97
2022-11-25T03:56:16.689Z,100622.09
2022-11-25T03:59:19.293Z,100620.31
2022-11-25T04:02:21.600Z,100622.91
2022-11-25T04:05:24.585Z,100618.66
2022-11-25T04:08:27.469Z,100628.06
2022-11-25T04:11:49.338Z,100623.72
2022-11-25T04:14:52.013Z,100636.50
2022-11-25T04:17:54.699Z,100638.16
2022-11-25T04:20:56.946Z,100639.81
2022-11-25T04:23:59.515Z,100644.16
2022-11-25T04:27:01.896Z,100642.50
2022-11-25T04:30:05.935Z,100641.66
2022-11-25T04:33:08.616Z,100645.97
2022-11-25T04:36:11.129Z,100649.38
2022-11-25T04:39:13.736Z,100660.59
2022-11-25T04:42:31.881Z,100657.16
2022-11-25T04:45:58.535Z,100662.28
2022-11-25T04:48:57.149Z,100659.69
2022-11-25T04:51:59.546Z,100671.66
2022-11-25T04:55:02.592Z,100670.81
2022-11-25T04:58:05.196Z,100670.72
2022-11-25T05:01:08.216Z,100670.72
2022-11-25T05:04:11.009Z,100675.00
2022-11-25T05:07:14.779Z,100681.91
2022-11-25T05:10:18.379Z,100683.56
2022-11-25T05:13:21.313Z,100694.63
2022-11-25T05:16:23.635Z,100708.25
2022-11-25T05:19:27.158Z,100704.81
2022-11-25T05:22:30.929Z,100704.84
2022-11-25T05:25:34.020Z,100719.31
2022-11-25T05:28:37.649Z,100718.41
2022-11-25T05:31:40.262Z,100720.03
2022-11-25T05:34:42.948Z,100730.25
2022-11-25T05:37:45.666Z,100737.00
2022-11-25T05:40:48.020Z,100741.19
2022-11-25T05:43:50.949Z,100746.19
2022-11-25T05:46:53.297Z,100746.94
2022-11-25T05:49:55.974Z,100750.28
2022-11-25T05:52:59.403Z,100747.72
2022-11-25T05:56:04.300Z,100758.87
2022-11-25T05:59:08.609Z,100766.56
2022-11-25T06:02:14.660Z,100775.91
2022-11-25T06:05:17.279Z,100775.91
2022-11-25T06:08:19.670Z,100774.97
2022-11-25T06:11:22.537Z,100781.72
2022-11-25T06:14:24.896Z,100785.91
2022-11-25T06:17:27.438Z,100796.16
2022-11-25T06:20:29.943Z,100797.00
2022-11-25T06:23:33.316Z,100812.34
2022-11-25T06:26:35.651Z,100810.53
2022-11-25T06:29:39.201Z,100810.53
2022-11-25T06:32:41.614Z,100814.84
2022-11-25T06:35:44.419Z,100815.72
2022-11-25T06:38:47.621Z,100820.88
2022-11-25T06:41:50.119Z,100823.56
2022-11-25T06:44:52.355Z,100812.50
2022-11-25T06:47:54.891Z,100816.84
2022-11-25T06:51:01.568Z,100817.78
2022-11-25T06:54:04.193Z,100824.69
2022-11-25T06:57:07.202Z,100825.62
2022-11-25T07:00:09.903Z,100829.97
2022-11-25T07:03:12.871Z,100833.47
2022-11-25T07:06:16.413Z,100838.72
2022-11-25T07:09:19.634Z,100841.44
2022-11-25T07:12:22.242Z,100841.63
2022-11-25T07:15:24.531Z,100847.72
2022-11-25T07:18:28.774Z,100854.66
2022-11-25T07:21:32.006Z,100861.56
2022-11-25T07:24:35.292Z,100848.81
2022-11-25T07:27:37.566Z,100851.44
2022-11-25T07:31:22.676Z,100859.25
2022-11-25T07:34:04.570Z,100861.00
2022-11-25T07:37:07.201Z,100856.84
2022-11-25T07:40:09.750Z,100862.91
2022-11-25T07:43:12.223Z,100864.72
2022-11-25T07:46:25.026Z,100861.31
2022-11-25T07:49:29.336Z,100873.34
2022-11-25T07:52:31.713Z,100865.59
2022-11-25T07:55:34.372Z,100865.56
2022-11-25T07:58:39.323Z,100863.81
2022-11-25T08:01:45.587Z,100862.06
2022-11-25T08:04:48.288Z,100863.78
2022-11-25T08:07:50.540Z,100868.94
2022-11-25T08:10:53.126Z,100865.47
2022-11-25T08:13:56.066Z,100862.88
2022-11-25T08:16:58.601Z,100871.44
2022-11-25T08:20:00.933Z,100873.97
2022-11-25T08:23:03.889Z,100867.87
2022-11-25T08:26:07.024Z,100886.66
2022-11-25T08:29:12.717Z,100879.72
2022-11-25T08:32:15.032Z,100883.03
2022-11-25T08:35:17.742Z,100877.81
2022-11-25T08:38:20.175Z,100887.13
2022-11-25T08:41:25.557Z,100879.41
2022-11-25T08:44:29.988Z,100892.22
2022-11-25T08:47:32.958Z,100888.84
2022-11-25T08:50:35.325Z,100887.03
2022-11-25T08:53:38.768Z,100890.47
2022-11-25T08:56:40.950Z,100889.56
2022-11-25T08:59:43.684Z,100884.31
2022-11-25T09:02:46.098Z,100884.09
2022-11-25T09:05:49.291Z,100889.22
2022-11-25T09:08:51.814Z,100887.25
2022-11-25T09:11:54.304Z,100878.84
2022-11-25T09:14:56.577Z,100889.03
2022-11-25T09:18:03.574Z,100886.47
2022-11-25T09:21:13.251Z,100885.38
2022-11-25T09:24:15.905Z,100887.87
2022-11-25T09:27:18.645Z,100888.59
2022-11-25T09:30:21.350Z,100890.19
2022-11-25T09:33:24.138Z,100891.63
2022-11-25T09:36:26.751Z,100889.97
2022-11-25T09:39:30.551Z,100885.50
2022-11-25T09:42:52.259Z,100890.59
2022-11-25T09:46:28.504Z,100884.59
2022-11-25T09:49:50.234Z,100881.66
2022-11-25T09:52:55.531Z,100886.88
2022-11-25T09:56:02.084Z,100871.06
2022-11-25T09:59:11.015Z,100865.91
2022-11-25T10:02:17.871Z,100875.09
2022-11-25T10:05:25.372Z,100872.56
2022-11-25T10:08:30.126Z,100873.25
2022-11-25T10:11:39.772Z,100877.59
2022-11-25T10:14:42.042Z,100864.44
2022-11-25T10:17:50.417Z,100866.22
2022-11-25T10:20:54.063Z,100872.13
2022-11-25T10:23:56.870Z,100865.91
2022-11-25T10:27:01.650Z,100867.44
2022-11-25T10:30:13.153Z,100865.75
2022-11-25T10:33:20.899Z,100862.97
2022-11-25T10:36:29.181Z,100860.25
2022-11-25T10:39:33.957Z,100852.38
2022-11-25T10:42:37.093Z,100854.69
2022-11-25T10:45:45.178Z,100864.97
2022-11-25T10:48:50.501Z,100866.41
2022-11-25T10:51:52.740Z,100871.56
2022-11-25T10:54:56.225Z,100869.88
2022-11-25T10:57:59.340Z,100868.13
2022-11-25T11:01:16.338Z,100868.13
2022-11-25T11:04:19.126Z,100873.00
2022-11-25T11:07:21.795Z,100872.06
2022-11-25T11:10:26.050Z,100871.97
2022-11-25T11:13:33.128Z,100865.69
2022-11-25T11:16:40.188Z,100875.81
2022-11-25T11:19:42.736Z,100873.28
2022-11-25T11:23:05.525Z,100875.88
2022-11-25T11:26:20.916Z,100880.81
2022-11-25T11:29:23.252Z,100887.63
2022-11-25T11:32:28.374Z,100878.84
2022-11-25T11:35:37.680Z,100876.12
2022-11-25T11:38:54.275Z,100878.78
2022-11-25T11:42:02.476Z,100873.44
2022-11-25T11:45:23.629Z,100872.56
2022-11-25T11:48:31.037Z,100880.72
2022-11-25T11:51:47.371Z,100877.31
2022-11-25T11:54:53.919Z,100875.34
2022-11-25T11:58:02.335Z,100878.22
2022-11-25T12:01:22.951Z,100878.47
2022-11-25T12:04:34.950Z,100873.84
2022-11-25T12:07:40.682Z,100869.34
2022-11-25T12:10:47.461Z,100867.34
2022-11-25T12:14:02.693Z,100873.38
2022-11-25T12:17:25.439Z,100879.47
2022-11-25T12:20:46.839Z,100883.94
2022-11-25T12:24:07.954Z,100877.06
2022-11-25T12:27:22.539Z,100879.59
2022-11-25T12:30:29.417Z,100873.78
2022-11-25T12:33:51.901Z,100873.28
2022-11-25T12:36:59.384Z,100870.00
2022-11-25T12:40:15.079Z,100866.69
2022-11-25T12:43:26.837Z,100869.28
2022-11-25T12:46:39.702Z,100868.63
2022-11-25T12:49:43.682Z,100867.00
2022-11-25T12:52:52.500Z,100862.12
2022-11-25T12:55:58.394Z,100863.25
2022-11-25T12:59:10.673Z,100858.31
2022-11-25T13:02:27.360Z,100854.81
2022-11-25T13:05:45.018Z,100860.78
2022-11-25T13:08:50.819Z,100850.84
2022-11-25T13:12:00.543Z,100860.50
2022-11-25T13:15:12.493Z,100858.56
2022-11-25T13:18:20.529Z,100859.53
2022-11-25T13:21:24.972Z,100857.84
2022-11-25T13:24:47.680Z,100851.91
2022-11-25T13:27:53.315Z,100852.91
2022-11-25T13:30:56.260Z,100856.41
2022-11-25T13:34:07.034Z,100855.62
2022-11-25T13:37:32.232Z,100854.88
2022-11-25T13:40:38.643Z,100857.41
2022-11-25T13:44:07.443Z,100866.12
2022-11-25T13:47:28.283Z,100875.72
2022-11-25T13:50:48.320Z,100884.37
2022-11-25T13:54:05.585Z,100879.31
2022-11-25T13:57:13.727Z,100879.78
2022-11-25T14:00:17.263Z,100887.00
2022-11-25T14:03:21.731Z,100890.72
2022-11-25T14:06:34.442Z,100889.19
2022-11-25T14:10:06.599Z,100893.50
2022-11-25T14:13:15.241Z,100902.53
2022-11-25T14:16:23.493Z,100909.25
2022-11-25T14:19:55.449Z,100907.97
2022-11-25T14:23:08.662Z,100914.91
2022-11-25T14:26:34.093Z,100911.63
2022-11-25T14:29:37.859Z,100910.25
2022-11-25T14:32:44.198Z,100908.03
2022-11-25T14:35:51.330Z,100905.72
2022-11-25T14:38:59.891Z,100905.91
2022-11-25T14:42:05.049Z,100907.84
2022-11-25T14:45:39.835Z,100907.13
2022-11-25T14:48:43.133Z,100909.84
2022-11-25T14:51:48.601Z,100901.44
2022-11-25T14:54:51.958Z,100914.44
2022-11-25T14:57:54.493Z,100916.09
2022-11-25T15:01:08.035Z,100917.88
2022-11-25T15:04:13.220Z,100917.97
2022-11-25T15:07:18.629Z,100911.13
2022-11-25T15:10:30.464Z,100921.56
2022-11-25T15:13:40.771Z,100923.31
2022-11-25T15:16:43.904Z,100923.34
2022-11-25T15:19:46.830Z,100918.19
2022-11-25T15:22:50.822Z,100922.44
2022-11-25T15:25:53.815Z,100925.84
2022-11-25T15:28:57.683Z,100931.81
2022-11-25T15:32:00.607Z,100924.06
2022-11-25T15:35:03.996Z,100923.97
2022-11-25T15:38:39.079Z,100928.19
2022-11-25T15:41:42.545Z,100927.31
2022-11-25T15:44:50.863Z,100939.41
2022-11-25T15:47:53.536Z,100940.31
2022-11-25T15:51:03.847Z,100938.66
2022-11-25T15:54:06.220Z,100943.84
2022-11-25T15:57:23.187Z,100938.53
2022-11-25T16:00:25.544Z,100947.91
2022-11-25T16:03:28.737Z,100949.50
2022-11-25T16:06:31.006Z,100949.53
2022-11-25T16:09:33.468Z,100951.22
2022-11-25T16:12:35.660Z,100949.56
2022-11-25T16:15:46.083Z,100951.38
2022-11-25T16:19:07.210Z,100956.69
2022-11-25T16:22:13.975Z,100953.31
2022-11-25T16:25:16.331Z,100955.16
2022-11-25T16:28:22.537Z,100960.44
2022-11-25T16:31:25.083Z,100961.34
2022-11-25T16:34:28.085Z,100961.44
2022-11-25T16:37:30.262Z,100965.81
2022-11-25T16:40:36.985Z,100961.56
2022-11-25T16:43:42.249Z,100972.78
2022-11-25T16:46:45.069Z,100987.44
2022-11-25T16:49:47.365Z,100990.88
2022-11-25T16:52:50.049Z,100988.31
2022-11-25T16:55:52.393Z,100991.81
2022-11-25T16:58:55.490Z,100996.97
2022-11-25T17:01:59.211Z,101003.84
2022-11-25T17:05:14.115Z,101012.44
2022-11-25T17:08:16.528Z,101008.16
2022-11-25T17:11:22.069Z,101014.13
2022-11-25T17:14:27.760Z,101015.84
2022-11-25T17:17:30.386Z,101013.25
2022-11-25T17:20:33.299Z,101013.25
2022-11-25T17:23:36.007Z,101018.38
2022-11-25T17:26:39.637Z,101015.78
2022-11-25T17:29:43.460Z,101017.50
2022-11-25T17:32:46.474Z,101014.94
2022-11-25T17:35:49.040Z,101013.19
2022-11-25T17:38:51.387Z,101012.34
2022-11-25T17:41:54.542Z,101008.91
2022-11-25T17:44:57.117Z,101023.50
2022-11-25T17:47:59.755Z,101024.31
2022-11-25T17:51:07.122Z,101032.06
2022-11-25T17:54:10.108Z,101038.06
2022-11-25T17:57:15.945Z,101037.16
2022-11-25T18:00:22.299Z,101036.28
2022-11-25T18:03:24.846Z,101043.06
2022-11-25T18:06:27.180Z,101055.09
2022-11-25T18:09:29.899Z,101049.12
2022-11-25T18:12:34.071Z,101049.94
2022-11-25T18:15:36.587Z,101056.75
2022-11-25T18:18:39.173Z,101068.59
2022-11-25T18:21:41.977Z,101069.38
2022-11-25T18:24:44.429Z,101082.91
2022-11-25T18:27:47.350Z,101078.66
2022-11-25T18:30:50.194Z,101079.47
2022-11-25T18:33:52.863Z,101086.41
2022-11-25T18:36:55.163Z,101083.69
2022-11-25T18:39:57.701Z,101088.84
2022-11-25T18:43:01.325Z,101089.69
2022-11-25T18:46:05.025Z,101092.25
2022-11-25T18:49:14.476Z,101098.22
2022-11-25T18:52:17.106Z,101097.41
2022-11-25T18:55:21.947Z,101103.44
2022-11-25T18:58:27.107Z,101113.72
2022-11-25T19:01:29.642Z,101117.09
2022-11-25T19:04:32.310Z,101112.84
2022-11-25T19:07:34.648Z,101108.50
2022-11-25T19:10:38.035Z,101112.75
2022-11-25T19:13:40.887Z,101123.88
2022-11-25T19:16:43.961Z,101128.19
2022-11-25T19:19:46.259Z,101128.28
2022-11-25T19:22:48.968Z,101130.72
2022-11-25T19:25:55.355Z,101131.50
2022-11-25T19:29:03.124Z,101140.19
2022-11-25T19:32:12.140Z,101146.22
2022-11-25T19:35:17.231Z,101146.13
2022-11-25T19:38:21.502Z,101148.81
2022-11-25T19:41:24.015Z,101147.91
2022-11-25T19:44:26.306Z,101149.69
2022-11-25T19:47:28.889Z,101148.84
2022-11-25T19:50:33.887Z,101153.97
2022-11-25T19:53:36.558Z,101154.78
2022-11-25T19:56:40.096Z,101165.94
2022-11-25T19:59:43.053Z,101171.03
2022-11-25T20:02:46.228Z,101171.84
2022-11-25T20:05:50.134Z,101170.25
2022-11-25T20:08:52.478Z,101178.78
2022-11-25T20:11:58.701Z,101179.75
2022-11-25T20:15:01.011Z,101182.25
2022-11-25T20:18:04.393Z,101182.22
2022-11-25T20:21:06.758Z,101185.75
2022-11-25T20:24:12.764Z,101188.22
2022-11-25T20:27:16.095Z,101191.59
2022-11-25T20:30:20.783Z,101192.50
2022-11-25T20:33:24.921Z,101196.06
2022-11-25T20:36:30.789Z,101200.25
2022-11-25T20:39:33.056Z,101207.97
2022-11-25T20:42:36.802Z,101209.81
2022-11-25T20:45:39.356Z,101217.53
2022-11-25T20:48:42.545Z,101221.75
2022-11-25T20:51:52.255Z,101224.34
2022-11-25T20:54:54.757Z,101227.78
2022-11-25T20:57:57.026Z,101225.16
2022-11-25T21:00:59.660Z,101222.69
2022-11-25T21:04:02.037Z,101224.28
2022-11-25T21:07:06.686Z,101224.34
2022-11-25T21:10:26.258Z,101221.75
2022-11-25T21:13:29.901Z,101219.13
2022-11-25T21:16:32.126Z,101220.75
2022-11-25T21:19:34.601Z,101225.16
2022-11-25T21:22:41.211Z,101229.56
2022-11-25T21:25:44.515Z,101226.16
2022-11-25T21:28:47.905Z,101220.09
2022-11-25T21:31:50.590Z,101226.91
2022-11-25T21:34:53.181Z,101225.19
2022-11-25T21:37:55.591Z,101226.84
2022-11-25T21:40:58.373Z,101226.81
2022-11-25T21:44:01.171Z,101225.16
2022-11-25T21:47:15.276Z,101215.72
2022-11-25T21:50:18.841Z,101224.25
2022-11-25T21:53:21.323Z,101228.50
2022-11-25T21:56:28.601Z,101223.37
2022-11-25T21:59:31.049Z,101229.47
2022-11-25T22:02:33.622Z,101231.13
2022-11-25T22:05:36.248Z,101234.50
2022-11-25T22:08:38.451Z,101231.88
2022-11-25T22:11:43.263Z,101234.50
2022-11-25T22:14:45.529Z,101238.75
2022-11-25T22:17:48.519Z,101244.75
2022-11-25T22:20:53.658Z,101242.16
2022-11-25T22:23:56.315Z,101231.03
2022-11-25T22:26:58.811Z,101236.13
2022-11-25T22:30:01.352Z,101231.72
2022-11-25T22:33:03.781Z,101236.87
2022-11-25T22:36:06.431Z,101242.81
2022-11-25T22:39:11.711Z,101241.22
2022-11-25T22:42:24.674Z,101242.97
2022-11-25T22:45:29.935Z,101253.16
2022-11-25T22:48:37.273Z,101248.88
2022-11-25T22:51:39.548Z,101253.00
2022-11-25T22:54:42.201Z,101259.16
2022-11-25T22:57:44.622Z,101262.50
2022-11-25T23:00:47.562Z,101263.28
2022-11-25T23:03:49.897Z,101270.09
2022-11-25T23:06:53.591Z,101265.00
2022-11-25T23:09:56.826Z,101277.19
2022-11-25T23:12:59.324Z,101265.94
2022-11-25T23:16:03.970Z,101260.69
2022-11-25T23:19:12.218Z,101262.34
2022-11-25T23:22:14.700Z,101270.03
2022-11-25T23:25:19.087Z,101271.81
2022-11-25T23:28:21.433Z,101271.81
2022-11-25T23:31:25.643Z,101275.34
2022-11-25T23:34:27.962Z,101283.06
2022-11-25T23:37:30.464Z,101281.28
2022-11-25T23:40:33.686Z,101276.16
2022-11-25T23:43:36.265Z,101277.03
2022-11-25T23:46:40.166Z,101280.53
2022-11-25T23:49:44.481Z,101272.78
2022-11-25T23:52:46.791Z,101276.38
2022-11-25T23:55:49.792Z,101275.50
2022-11-25T23:58:51.981Z,101287.50
